Cartwright, Canada
Current Conditions -  °F | °C
As of 11:00 PM on Saturday 22 Nov 2014 (Local Time) from CWCA Reporting Station
Few Clouds Few Clouds  
Wind Chill:   Ceiling: Unl
Heat Index: 18°   Visibility: 15mi
Dew Point: 10°   Wind: 21mph
Humidity: 73%   Direction: 260°W
Pressure: 29.29"   Gusts: 32mph
Location:  53.7°N, 57.03°W
Report Text: CWCA 230300Z 26018G28KT 15SM FEW100 M08/M12 A2929 RMK AC1 SLP919
Loading
Personal Weather Stations






























Interactive Weather Map New forecast layout! Learn more

10-Day Weather Forecast

Advertisements
Track Severe Weather on mobile